Time;durP1;ratioP1;P1;durP2;ratioP2;P2;SDS_P1;SDS_P2;PMS_P1;PMS_P2;Temp;Humidity;BMP_temperature;BMP_pressure;BME280_temperature;BME280_humidity;BME280_pressure;Samples;Min_cycle;Max_cycle;Signal;HPM_P1;HPM_P2
2022/12/28 00:01:45;;;;;;;10.05;2.80;;;0.50;99.90;;;0.29;100.00;100684.81;4943099;28;20317;-70
2022/12/28 00:04:14;;;;;;;13.13;4.22;;;0.50;99.90;;;0.28;100.00;100672.63;4928101;28;20272;-70
2022/12/28 00:06:41;;;;;;;13.95;4.32;;;0.50;99.90;;;0.39;100.00;100677.50;4941287;28;20304;-70
2022/12/28 00:09:11;;;;;;;18.02;5.55;;;0.80;99.90;;;0.47;100.00;100684.03;4939482;28;20236;-71
2022/12/28 00:15:44;;;;;;;12.02;3.38;;;0.70;99.90;;;0.50;100.00;100664.25;4939848;28;20327;-70
2022/12/28 00:18:11;;;;;;;15.95;4.28;;;0.60;99.90;;;0.54;100.00;100675.72;4946131;28;20246;-71
2022/12/28 00:20:38;;;;;;;15.93;4.30;;;0.70;99.90;;;0.54;100.00;100670.53;4933023;28;20333;-71
2022/12/28 00:23:05;;;;;;;12.85;3.53;;;0.70;99.90;;;0.50;100.00;100663.38;4930919;28;20263;-71
2022/12/28 00:25:35;;;;;;;14.10;4.25;;;0.60;99.90;;;0.68;100.00;100672.13;4927597;28;20265;-71
2022/12/28 00:28:03;;;;;;;13.65;3.88;;;0.70;99.90;;;0.75;100.00;100678.56;4949538;28;20241;-71
2022/12/28 00:30:30;;;;;;;15.68;4.65;;;0.80;99.90;;;0.78;100.00;100682.22;4946524;28;20320;-71
2022/12/28 00:32:57;;;;;;;12.05;3.63;;;1.00;99.90;;;0.75;100.00;100678.56;4944243;28;20237;-71
2022/12/28 00:35:24;;;;;;;11.15;3.33;;;1.00;99.90;;;0.77;100.00;100672.59;4961017;28;20589;-71
2022/12/28 00:37:52;;;;;;;6.15;1.80;;;0.90;99.90;;;0.84;100.00;100671.22;4945198;28;20257;-71
2022/12/28 00:40:19;;;;;;;13.48;3.92;;;1.10;99.90;;;0.89;100.00;100659.31;4928181;28;20272;-71
2022/12/28 00:42:50;;;;;;;15.73;4.28;;;1.00;99.90;;;1.00;100.00;100665.97;4933603;28;20235;-71
2022/12/28 00:45:17;;;;;;;13.43;4.00;;;1.10;99.90;;;0.95;100.00;100654.44;4941596;28;20276;-70
2022/12/28 00:47:44;;;;;;;9.68;2.75;;;1.50;99.90;;;1.01;100.00;100651.25;4933247;28;20765;-71
2022/12/28 00:50:11;;;;;;;12.57;3.53;;;1.10;99.90;;;0.98;100.00;100641.56;4945517;28;20246;-71
2022/12/28 00:52:38;;;;;;;11.52;3.38;;;1.10;99.90;;;1.02;100.00;100640.91;4947208;28;21201;-71
2022/12/28 00:55:05;;;;;;;13.15;3.95;;;1.10;99.90;;;1.02;100.00;100634.81;4935260;28;20333;-71
2022/12/28 00:57:32;;;;;;;13.27;3.58;;;1.20;99.90;;;1.06;100.00;100635.03;4928075;28;20257;-71
2022/12/28 00:59:59;;;;;;;11.95;3.58;;;1.20;99.90;;;1.21;100.00;100627.97;4944681;28;20296;-71
2022/12/28 01:02:26;;;;;;;15.40;4.22;;;1.40;99.90;;;1.28;100.00;100635.28;4929675;28;20245;-71
2022/12/28 01:04:53;;;;;;;11.02;2.95;;;1.40;99.90;;;1.28;100.00;100630.06;4933336;28;20307;-71
2022/12/28 01:07:20;;;;;;;10.68;3.17;;;1.40;99.90;;;1.31;100.00;100629.34;4932245;28;20242;-70
2022/12/28 01:09:47;;;;;;;11.20;3.17;;;1.50;99.90;;;1.28;100.00;100631.78;4931031;28;20347;-70
2022/12/28 01:12:14;;;;;;;13.40;4.18;;;1.50;99.90;;;1.31;100.00;100628.47;4945725;28;20257;-70
2022/12/28 01:14:41;;;;;;;12.40;3.67;;;1.50;99.90;;;1.32;100.00;100623.31;4922017;28;20324;-71
2022/12/28 01:17:08;;;;;;;9.40;3.05;;;1.40;99.90;;;1.36;100.00;100624.38;4920671;28;20320;-70
2022/12/28 01:19:35;;;;;;;10.63;3.38;;;1.50;99.90;;;1.33;100.00;100626.81;4927210;28;20260;-70
2022/12/28 01:22:02;;;;;;;12.73;3.60;;;1.50;99.90;;;1.28;100.00;100624.84;4933095;28;20253;-70
2022/12/28 01:24:29;;;;;;;9.18;2.78;;;1.60;99.90;;;1.31;100.00;100621.53;4928477;28;20229;-70
2022/12/28 01:26:56;;;;;;;11.65;3.50;;;1.60;99.90;;;1.26;100.00;100617.78;4928241;28;20226;-71
2022/12/28 01:29:23;;;;;;;14.60;4.20;;;1.50;99.90;;;1.31;100.00;100616.31;4959325;28;20301;-70
2022/12/28 01:31:50;;;;;;;11.50;3.95;;;1.40;99.90;;;1.29;100.00;100612.72;4944648;28;20229;-71
2022/12/28 01:34:17;;;;;;;10.38;3.17;;;1.40;99.90;;;1.30;100.00;100609.31;4933605;28;20316;-71
2022/12/28 01:36:44;;;;;;;10.32;3.17;;;1.50;99.90;;;1.32;100.00;100604.19;4945568;28;20343;-70
2022/12/28 01:39:11;;;;;;;6.90;2.17;;;1.70;99.90;;;1.42;100.00;100607.31;4935697;28;20297;-71
2022/12/28 01:41:41;;;;;;;11.45;3.35;;;1.50;99.90;;;1.46;100.00;100608.34;4927447;28;20254;-71
2022/12/28 01:44:09;;;;;;;15.98;4.97;;;1.60;99.90;;;1.64;100.00;100613.56;4930802;28;20293;-71
2022/12/28 01:46:53;;;;;;;13.98;4.18;;;1.70;99.90;;;1.60;100.00;100605.59;4956534;28;20244;-71
2022/12/28 01:49:40;;;;;;;10.80;3.67;;;1.80;99.90;;;1.79;100.00;100609.06;4952679;28;20287;-71
2022/12/28 01:52:16;;;;;;;10.32;3.88;;;1.90;99.90;;;2.03;100.00;100617.13;4948110;28;20316;-70
2022/12/28 01:54:53;;;;;;;9.38;2.63;;;2.40;99.90;;;2.18;100.00;100623.03;4954554;28;20381;-71
2022/12/28 01:57:27;;;;;;;9.98;3.05;;;2.90;99.90;;;2.26;100.00;100629.50;4952429;28;20228;-71
2022/12/28 02:00:07;;;;;;;8.77;2.45;;;2.40;99.90;;;2.43;100.00;100633.75;4929223;28;22119;-71
2022/12/28 02:02:35;;;;;;;9.85;2.92;;;2.50;99.90;;;2.44;100.00;100632.03;4931712;28;20233;-71
2022/12/28 02:05:03;;;;;;;7.97;2.25;;;2.60;99.90;;;2.43;100.00;100632.84;4935973;28;20238;-71
2022/12/28 02:07:48;;;;;;;10.18;3.03;;;2.60;99.90;;;2.53;100.00;100655.94;4940158;28;20245;-71
2022/12/28 02:10:18;;;;;;;10.93;3.25;;;2.60;99.90;;;2.55;100.00;100660.41;4946306;28;20260;-71
2022/12/28 02:13:05;;;;;;;14.65;4.65;;;2.70;99.90;;;2.54;100.00;100668.16;4944004;28;20237;-71
2022/12/28 02:15:32;;;;;;;16.15;4.55;;;3.00;99.90;;;2.58;100.00;100670.97;4927750;28;20245;-71
2022/12/28 02:17:59;;;;;;;11.07;3.10;;;2.70;99.90;;;2.56;100.00;100679.56;4931921;28;20313;-71
2022/12/28 02:20:43;;;;;;;9.45;3.05;;;2.80;99.90;;;2.56;100.00;100687.41;4924797;28;20233;-71
2022/12/28 02:23:37;;;;;;;11.80;3.47;;;2.70;99.90;;;2.58;100.00;100691.84;4953223;28;20701;-71
2022/12/28 02:26:33;;;;;;;15.80;4.40;;;2.70;99.90;;;2.54;100.00;100692.53;4946920;28;20235;-71
2022/12/28 02:29:24;;;;;;;15.02;4.70;;;2.70;99.90;;;2.55;100.00;100693.44;4946312;28;20232;-71
2022/12/28 02:32:12;;;;;;;9.77;3.13;;;2.90;99.90;;;2.63;100.00;100699.03;4944749;28;20264;-71
2022/12/28 02:34:47;;;;;;;8.35;2.33;;;2.70;99.90;;;2.61;100.00;100685.03;4963180;28;20230;-71
2022/12/28 02:37:41;;;;;;;8.57;2.40;;;2.70;99.90;;;2.60;100.00;100688.44;4947102;28;20297;-71
2022/12/28 02:40:16;;;;;;;10.52;3.25;;;2.70;99.90;;;2.55;100.00;100690.81;4946419;28;20226;-71
2022/12/28 02:42:45;;;;;;;4.63;1.45;;;2.70;99.90;;;2.64;100.00;100683.44;4935107;28;20284;-71
2022/12/28 02:51:38;;;;;;;11.57;3.67;;;2.90;99.90;;;2.87;100.00;100687.97;4945844;28;20230;-71
2022/12/28 02:56:06;;;;;;;11.23;4.03;;;3.00;99.90;;;3.00;100.00;100702.44;4946390;28;20224;-71
2022/12/28 02:57:33;;;;;;;16.70;5.18;;;3.10;99.90;;;3.10;100.00;100711.56;4946859;28;20748;-71
2022/12/28 03:00:05;;;;;;;14.93;4.38;;;3.20;99.90;;;3.12;100.00;100717.75;4960252;28;20229;-71
2022/12/28 03:03:02;;;;;;;13.07;3.67;;;3.20;99.90;;;3.19;100.00;100723.31;4940465;28;20241;-71
2022/12/28 03:09:16;;;;;;;11.50;3.35;;;3.30;99.90;;;3.17;100.00;100701.44;4951103;28;20226;-71
2022/12/28 03:11:52;;;;;;;11.82;3.35;;;3.30;99.90;;;3.30;100.00;100707.19;4964520;28;20293;-71
2022/12/28 03:14:47;;;;;;;8.85;2.63;;;3.80;99.90;;;3.29;100.00;100711.53;4947690;28;20292;-71
2022/12/28 03:31:23;;;;;;;4.28;1.50;;;3.70;99.90;;;3.50;100.00;100698.47;4949443;28;20774;-71
2022/12/28 03:34:05;;;;;;;10.20;2.90;;;3.60;99.90;;;3.47;100.00;100694.00;4933205;28;20258;-71
2022/12/28 03:36:50;;;;;;;14.98;4.55;;;3.60;99.90;;;3.50;100.00;100707.19;4942699;28;20229;-71
2022/12/28 03:40:02;;;;;;;10.48;3.13;;;3.60;99.90;;;3.54;100.00;100709.13;4947420;28;20257;-71
2022/12/28 03:46:03;;;;;;;13.45;4.07;;;3.60;99.90;;;3.56;100.00;100692.59;4955975;28;20237;-71
2022/12/28 03:48:33;;;;;;;3.40;1.15;;;3.60;99.90;;;3.56;100.00;100695.22;4954911;28;20699;-71
2022/12/28 03:51:00;;;;;;;9.32;2.78;;;3.70;99.90;;;3.61;100.00;100681.50;4947930;28;20312;-71
2022/12/28 03:53:40;;;;;;;8.38;2.53;;;3.80;99.90;;;3.57;100.00;100689.16;4930855;28;20261;-71
2022/12/28 03:56:14;;;;;;;10.35;3.22;;;3.90;99.90;;;3.52;100.00;100681.13;4926760;28;20301;-71
2022/12/28 03:58:41;;;;;;;12.27;4.20;;;3.70;99.90;;;3.56;100.00;100680.41;4923943;28;20315;-71
2022/12/28 04:01:09;;;;;;;9.73;2.95;;;3.70;99.90;;;3.58;100.00;100683.09;4938822;28;20237;-71
2022/12/28 04:03:36;;;;;;;11.45;3.28;;;3.70;99.90;;;3.60;100.00;100681.44;4944692;28;20241;-70
2022/12/28 04:06:04;;;;;;;9.48;2.67;;;3.70;99.90;;;3.59;100.00;100687.50;4948015;28;20304;-71
2022/12/28 04:08:33;;;;;;;10.95;3.20;;;3.70;99.90;;;3.56;100.00;100682.13;4928865;28;20230;-71
2022/12/28 04:11:00;;;;;;;3.65;1.27;;;3.70;99.90;;;3.58;100.00;100680.47;4949001;28;20233;-71
2022/12/28 04:13:31;;;;;;;10.40;3.30;;;3.70;99.90;;;3.63;100.00;100678.94;4943531;28;20261;-71
2022/12/28 04:16:05;;;;;;;11.15;3.05;;;3.70;99.90;;;3.67;100.00;100679.13;4946390;28;20229;-71
2022/12/28 04:18:33;;;;;;;12.00;3.72;;;3.80;99.90;;;3.73;100.00;100675.88;4943292;28;20233;-71
2022/12/28 04:21:01;;;;;;;10.63;3.08;;;3.80;99.90;;;3.76;100.00;100694.31;4942444;28;20253;-71
2022/12/28 04:23:29;;;;;;;11.98;3.25;;;3.90;99.90;;;3.77;100.00;100696.09;4945279;28;20256;-71
2022/12/28 04:26:01;;;;;;;8.93;2.60;;;3.90;99.90;;;3.78;100.00;100690.03;4946830;28;20233;-71
2022/12/28 04:28:29;;;;;;;13.75;3.83;;;3.90;99.90;;;3.83;100.00;100693.72;4946423;28;20265;-71
2022/12/28 04:30:57;;;;;;;10.50;3.13;;;3.90;99.90;;;3.83;100.00;100699.84;4947817;28;20237;-71
2022/12/28 04:33:25;;;;;;;7.63;2.22;;;3.90;99.90;;;3.85;100.00;100694.66;4951135;28;20261;-71
2022/12/28 04:35:52;;;;;;;8.35;2.47;;;4.00;99.90;;;3.84;100.00;100699.00;4935182;28;20265;-71
2022/12/28 04:38:20;;;;;;;4.45;1.30;;;4.00;99.90;;;3.91;100.00;100710.66;4945437;29;20288;-71
2022/12/28 04:40:47;;;;;;;8.05;2.15;;;4.00;99.90;;;3.90;100.00;100695.78;4945350;28;20792;-71
2022/12/28 04:43:14;;;;;;;11.07;3.33;;;4.00;99.90;;;3.91;100.00;100704.53;4929323;28;20237;-71
2022/12/28 04:45:41;;;;;;;10.00;3.25;;;4.00;99.90;;;3.93;100.00;100700.25;4948736;28;20702;-71
2022/12/28 04:48:08;;;;;;;11.02;3.20;;;4.00;99.90;;;3.97;100.00;100708.28;4941018;28;20690;-71
2022/12/28 04:50:36;;;;;;;9.80;2.67;;;4.10;99.90;;;4.00;100.00;100715.34;4945966;28;20335;-71
2022/12/28 04:53:03;;;;;;;11.38;3.20;;;4.10;99.90;;;3.96;100.00;100709.09;4927562;28;20237;-71
2022/12/28 04:55:30;;;;;;;7.70;2.40;;;4.10;99.90;;;3.93;100.00;100705.47;4927789;28;20289;-71
2022/12/28 04:57:59;;;;;;;7.30;2.33;;;4.00;99.90;;;4.02;100.00;100718.91;4925663;28;20588;-71
2022/12/28 05:00:26;;;;;;;12.35;3.38;;;4.10;99.90;;;4.05;100.00;100719.03;4956974;28;20235;-71
2022/12/28 05:02:57;;;;;;;16.00;5.10;;;4.10;99.90;;;4.06;100.00;100721.72;4923746;28;20288;-71
2022/12/28 05:05:25;;;;;;;13.90;3.65;;;4.20;99.90;;;4.11;100.00;100719.28;4944128;28;20228;-71
2022/12/28 05:07:52;;;;;;;12.80;3.45;;;4.20;99.90;;;4.15;100.00;100719.47;4949312;28;20249;-71
2022/12/28 05:10:20;;;;;;;9.32;2.72;;;4.20;99.90;;;4.15;100.00;100721.19;4955466;28;20252;-71
2022/12/28 05:12:47;;;;;;;12.13;3.17;;;4.30;99.90;;;4.23;100.00;100724.09;4939183;28;20682;-71
2022/12/28 05:15:14;;;;;;;9.18;2.63;;;4.30;99.90;;;4.20;100.00;100719.63;4933698;28;20237;-71
2022/12/28 05:17:41;;;;;;;12.43;3.45;;;4.30;99.90;;;4.16;100.00;100718.63;4933393;28;20250;-71
2022/12/28 05:20:08;;;;;;;14.38;3.88;;;4.30;99.90;;;4.22;100.00;100709.22;4930295;28;20253;-71
2022/12/28 05:22:35;;;;;;;8.32;2.30;;;4.30;99.90;;;4.22;100.00;100709.22;4931425;28;20370;-71
2022/12/28 05:25:07;;;;;;;12.57;3.65;;;4.40;99.90;;;4.20;100.00;100713.50;4935806;28;20257;-71
2022/12/28 05:27:34;;;;;;;5.63;1.70;;;4.30;99.90;;;4.30;100.00;100718.28;4950977;28;20222;-71
2022/12/28 05:30:01;;;;;;;13.40;4.15;;;4.40;99.90;;;4.31;100.00;100725.28;4940992;28;20324;-71
2022/12/28 05:32:28;;;;;;;10.68;3.13;;;4.40;99.90;;;4.34;100.00;100725.41;4932144;28;20238;-71
2022/12/28 05:34:55;;;;;;;10.50;3.08;;;4.40;99.90;;;4.36;100.00;100721.13;4948961;28;20265;-71
2022/12/28 05:37:22;;;;;;;9.50;2.80;;;4.40;99.90;;;4.40;100.00;100723.91;4948180;28;20265;-70
2022/12/28 05:39:49;;;;;;;12.02;3.13;;;4.50;99.90;;;4.33;100.00;100713.16;4949450;28;20293;-71
2022/12/28 05:42:16;;;;;;;9.75;2.88;;;4.50;99.90;;;4.27;100.00;100697.22;4949319;28;20316;-71
2022/12/28 05:44:43;;;;;;;9.50;3.10;;;4.40;99.90;;;4.26;100.00;100708.50;4944085;28;20241;-71
2022/12/28 05:47:10;;;;;;;11.68;3.50;;;4.40;99.90;;;4.29;100.00;100699.06;4931095;28;20320;-71
2022/12/28 05:49:37;;;;;;;14.02;4.05;;;4.40;99.90;;;4.30;100.00;100700.84;4948917;28;20260;-71
2022/12/28 05:52:04;;;;;;;12.82;3.90;;;4.40;99.90;;;4.31;100.00;100697.38;4931620;28;20238;-71
2022/12/28 05:54:31;;;;;;;14.48;4.15;;;4.40;99.90;;;4.30;100.00;100699.94;4930582;28;20281;-71
2022/12/28 05:56:58;;;;;;;10.95;3.58;;;4.40;99.90;;;4.40;100.00;100704.69;4936141;28;20328;-71
2022/12/28 05:59:25;;;;;;;8.52;2.45;;;4.50;99.90;;;4.35;100.00;100706.25;4953748;28;20734;-71
2022/12/28 06:01:55;;;;;;;9.88;2.85;;;4.50;99.90;;;4.37;100.00;100696.72;4897964;28;20319;-71
2022/12/28 06:04:25;;;;;;;9.65;2.95;;;4.50;99.90;;;4.39;100.00;100705.53;4939682;28;20280;-71
2022/12/28 06:06:56;;;;;;;10.77;3.35;;;4.50;99.90;;;4.34;100.00;100707.97;4928716;28;20637;-71
2022/12/28 06:09:27;;;;;;;9.57;3.22;;;4.50;99.90;;;4.38;100.00;100707.25;4920750;28;20316;-71
2022/12/28 06:11:54;;;;;;;7.97;2.55;;;4.50;99.90;;;4.34;100.00;100694.88;4947043;28;20272;-71
2022/12/28 06:14:21;;;;;;;10.88;3.28;;;4.50;99.90;;;4.34;100.00;100702.75;4934751;28;20229;-71
2022/12/28 06:16:48;;;;;;;16.88;4.95;;;4.00;99.90;;;4.37;100.00;100695.00;4946593;28;20265;-71
2022/12/28 06:19:15;;;;;;;11.32;3.33;;;4.40;99.90;;;4.25;100.00;100680.56;4941244;28;20244;-71
2022/12/28 06:21:43;;;;;;;13.15;3.70;;;4.40;99.90;;;4.28;100.00;100680.66;4944857;28;20281;-71
2022/12/28 06:24:12;;;;;;;13.35;4.30;;;4.40;99.90;;;4.24;100.00;100673.53;4945065;28;20297;-71
2022/12/28 06:26:40;;;;;;;14.90;4.70;;;4.30;99.90;;;4.22;100.00;100675.19;4936994;28;20238;-71
2022/12/28 06:29:08;;;;;;;15.43;5.13;;;4.30;99.90;;;4.22;100.00;100677.81;4929709;28;20702;-70
2022/12/28 06:31:39;;;;;;;14.90;4.15;;;4.30;99.90;;;4.31;100.00;100678.16;4940173;28;20324;-71
2022/12/28 06:34:08;;;;;;;8.80;3.03;;;4.40;99.90;;;4.26;100.00;100671.88;4940785;28;20222;-71
2022/12/28 06:36:41;;;;;;;12.65;3.85;;;4.40;99.90;;;4.31;100.00;100679.06;4922433;28;20233;-71
2022/12/28 06:39:12;;;;;;;13.43;4.55;;;4.40;99.90;;;4.23;100.00;100664.78;4929376;28;20328;-71
2022/12/28 06:41:40;;;;;;;9.90;2.85;;;4.30;99.90;;;4.29;100.00;100667.63;4930786;28;20234;-71
2022/12/28 06:44:09;;;;;;;11.95;4.07;;;4.40;99.90;;;4.30;100.00;100672.03;4957038;28;20794;-71
2022/12/28 06:46:37;;;;;;;11.13;3.88;;;4.40;99.90;;;4.32;100.00;100675.59;4934240;28;20237;-71
2022/12/28 06:49:04;;;;;;;14.30;4.78;;;4.40;99.90;;;4.35;100.00;100667.88;4942352;28;20265;-71
2022/12/28 06:51:40;;;;;;;4.15;1.42;;;4.40;99.90;;;4.32;100.00;100652.03;4926140;28;20237;-71
2022/12/28 06:54:10;;;;;;;10.73;3.67;;;4.40;99.90;;;4.34;100.00;100657.34;4940736;28;20257;-72
2022/12/28 06:56:38;;;;;;;12.43;4.47;;;4.40;99.90;;;4.35;100.00;100654.78;4936306;28;20232;-71
2022/12/28 06:59:06;;;;;;;12.60;3.72;;;4.50;99.90;;;4.33;100.00;100651.22;4932036;28;20233;-71
2022/12/28 07:01:39;;;;;;;11.25;3.95;;;4.40;99.90;;;4.31;100.00;100650.25;4937758;28;20237;-71
2022/12/28 07:04:08;;;;;;;10.18;3.33;;;4.40;99.90;;;4.35;100.00;100661.75;4934590;28;20238;-72
2022/12/28 07:06:43;;;;;;;10.00;3.08;;;4.40;99.90;;;4.41;100.00;100667.19;4930280;28;20226;-71
2022/12/28 07:09:13;;;;;;;10.80;3.53;;;4.50;99.90;;;4.41;100.00;100667.19;4923066;28;20232;-72
2022/12/28 07:11:41;;;;;;;11.43;3.47;;;4.50;99.90;;;4.43;100.00;100663.81;4926261;28;20237;-72
2022/12/28 07:14:09;;;;;;;12.90;4.03;;;4.50;99.90;;;4.43;100.00;100666.44;4924998;28;20284;-72
2022/12/28 07:16:36;;;;;;;11.80;3.83;;;4.50;99.90;;;4.45;100.00;100669.09;4942912;28;20233;-72
2022/12/28 07:19:02;;;;;;;14.40;5.13;;;4.50;99.90;;;4.55;100.00;100673.84;4920033;28;20225;-72
2022/12/28 07:21:35;;;;;;;8.48;2.97;;;4.60;99.90;;;4.52;100.00;100675.47;4948436;28;20324;-72
2022/12/28 07:24:04;;;;;;;10.60;3.30;;;4.60;99.90;;;4.50;100.00;100664.94;4946408;28;20281;-72
2022/12/28 07:26:34;;;;;;;8.75;2.88;;;4.60;99.90;;;4.51;100.00;100669.31;4927869;28;20225;-72
2022/12/28 07:29:03;;;;;;;10.95;3.67;;;4.60;99.90;;;4.51;100.00;100664.09;4927786;28;20237;-72
2022/12/28 07:31:34;;;;;;;13.80;4.68;;;4.60;99.90;;;4.49;100.00;100663.13;4943408;28;20234;-71
2022/12/28 07:34:10;;;;;;;9.43;2.90;;;4.60;99.90;;;4.49;100.00;100660.53;4941338;28;20325;-72
2022/12/28 07:36:37;;;;;;;8.77;2.65;;;4.60;99.90;;;4.54;100.00;100668.56;4938806;28;20229;-72
2022/12/28 07:39:04;;;;;;;12.00;4.13;;;4.60;99.90;;;4.55;100.00;100663.38;4944803;28;20241;-72
2022/12/28 07:41:33;;;;;;;13.05;4.43;;;4.70;99.90;;;4.58;100.00;100658.25;4942455;28;20241;-72
2022/12/28 07:44:01;;;;;;;11.65;4.03;;;4.70;99.90;;;4.59;100.00;100667.00;4922121;28;20225;-72
2022/12/28 07:46:32;;;;;;;10.75;3.17;;;4.70;99.90;;;4.65;100.00;100668.09;4935427;28;20230;-72
2022/12/28 07:49:00;;;;;;;8.55;2.63;;;4.70;99.90;;;4.68;100.00;100668.22;4932012;28;20237;-72
2022/12/28 07:51:35;;;;;;;8.98;2.75;;;4.80;99.90;;;4.74;100.00;100672.78;4962444;28;20317;-72
2022/12/28 07:54:04;;;;;;;5.78;1.98;;;4.80;99.90;;;4.77;100.00;100672.91;4930043;28;20249;-72
2022/12/28 07:56:32;;;;;;;9.75;3.20;;;4.80;99.90;;;4.82;100.00;100656.50;4922927;28;20229;-72
2022/12/28 07:59:03;;;;;;;13.07;4.50;;;4.90;99.90;;;4.87;100.00;100663.63;4940054;28;20221;-71
2022/12/28 08:01:34;;;;;;;7.75;2.60;;;4.90;99.90;;;4.90;100.00;100650.63;4939824;28;20244;-72
2022/12/28 08:04:06;;;;;;;7.82;2.67;;;5.00;99.90;;;5.09;100.00;100656.56;4941414;28;20305;-71
2022/12/28 08:06:37;;;;;;;8.63;2.85;;;5.50;99.90;;;5.11;100.00;100647.03;4929156;28;20258;-72
2022/12/28 08:09:06;;;;;;;6.72;2.22;;;5.20;99.90;;;5.22;100.00;100652.66;4937675;28;20229;-72
2022/12/28 08:11:37;;;;;;;7.50;2.35;;;5.30;99.90;;;5.28;100.00;100646.75;4924141;28;20244;-72
2022/12/28 08:14:05;;;;;;;8.38;3.17;;;5.30;99.90;;;5.30;100.00;100648.56;4940063;28;20250;-72
2022/12/28 08:16:38;;;;;;;8.05;2.70;;;5.40;99.90;;;5.31;100.00;100645.13;4927959;28;20375;-72
2022/12/28 08:19:07;;;;;;;8.70;2.72;;;5.40;99.90;;;5.34;100.00;100642.59;4948505;28;20237;-72
2022/12/28 08:21:39;;;;;;;10.82;3.17;;;5.40;99.90;;;5.40;100.00;100647.16;4955743;28;20225;-71
2022/12/28 08:24:08;;;;;;;10.48;3.55;;;5.40;99.90;;;5.37;100.00;100641.81;4935654;28;20281;-71
2022/12/28 08:26:39;;;;;;;9.95;3.17;;;5.50;99.90;;;5.47;100.00;100639.53;4928151;28;20757;-71
2022/12/28 08:29:11;;;;;;;7.47;2.53;;;5.50;99.90;;;5.48;100.00;100637.81;4960188;28;20253;-72
2022/12/28 08:31:41;;;;;;;3.55;1.15;;;5.50;99.90;;;5.55;100.00;100626.66;4930080;28;20268;-71
2022/12/28 08:34:17;;;;;;;3.85;1.42;;;5.60;99.90;;;5.56;100.00;100627.56;4945670;28;20254;-72
2022/12/28 08:36:44;;;;;;;7.97;2.45;;;5.60;99.90;;;5.63;100.00;100630.41;4940222;28;20610;-72
2022/12/28 08:39:11;;;;;;;10.45;3.70;;;5.70;99.90;;;5.60;100.00;100622.47;4943838;28;20233;-72
2022/12/28 08:41:38;;;;;;;6.20;2.05;;;5.70;99.90;;;5.66;100.00;100624.38;4937825;28;20249;-72
2022/12/28 08:44:06;;;;;;;5.65;1.85;;;5.70;99.90;;;5.69;100.00;100614.88;4922959;28;20230;-72
2022/12/28 08:46:35;;;;;;;6.40;2.10;;;5.70;99.90;;;5.75;100.00;100611.56;4940912;28;20226;-71
2022/12/28 08:49:04;;;;;;;7.97;2.55;;;5.80;99.90;;;5.75;100.00;100614.19;4928636;28;20714;-72
2022/12/28 08:51:40;;;;;;;7.03;2.28;;;5.80;99.90;;;5.85;100.00;100615.34;4946694;28;20313;-72
2022/12/28 08:54:11;;;;;;;8.60;3.05;;;5.90;99.90;;;5.86;100.00;100612.78;4933579;28;20253;-71
2022/12/28 08:56:41;;;;;;;10.90;3.40;;;5.90;99.90;;;5.93;100.00;100612.16;4911271;28;20226;-72
2022/12/28 08:59:15;;;;;;;8.10;2.72;;;6.00;99.90;;;5.97;100.00;100611.41;4928626;28;20226;-72
2022/12/28 09:01:44;;;;;;;9.30;2.90;;;6.00;99.90;;;6.08;100.00;100615.22;4940535;28;20233;-72
2022/12/28 09:04:18;;;;;;;8.63;2.90;;;6.10;99.90;;;6.12;100.00;100605.72;4942313;28;20237;-72
2022/12/28 09:06:46;;;;;;;9.73;3.45;;;6.20;99.90;;;6.13;100.00;100604.88;4941826;28;20226;-72
2022/12/28 09:09:16;;;;;;;9.70;3.50;;;6.20;99.90;;;6.23;100.00;100613.91;4938090;28;20313;-71
2022/12/28 09:11:43;;;;;;;9.43;3.20;;;6.20;99.90;;;6.23;100.00;100609.53;4922064;28;20762;-73
2022/12/28 09:14:13;;;;;;;13.50;4.35;;;6.30;99.90;;;6.20;100.00;100612.06;4944452;28;20229;-71
2022/12/28 09:16:48;;;;;;;8.98;2.83;;;6.30;99.90;;;6.25;100.00;100592.09;4932673;28;20229;-72
2022/12/28 09:19:16;;;;;;;7.13;2.58;;;6.30;99.90;;;6.39;100.00;100592.50;4919447;28;20284;-71
2022/12/28 09:21:47;;;;;;;12.23;4.32;;;6.40;99.90;;;6.43;100.00;100592.63;4934481;28;20249;-72
2022/12/28 09:24:15;;;;;;;10.48;3.60;;;6.50;99.90;;;6.59;100.00;100593.06;4911005;28;20241;-72
2022/12/28 09:26:42;;;;;;;8.70;2.90;;;6.60;99.90;;;6.68;100.00;100591.59;4933888;28;20233;-72
2022/12/28 09:29:12;;;;;;;10.00;3.58;;;6.70;99.90;;;6.87;100.00;100590.34;4938505;28;20308;-72
2022/12/28 09:31:40;;;;;;;10.07;3.40;;;6.80;99.90;;;6.99;100.00;100593.28;4935238;28;20233;-72
2022/12/28 09:34:12;;;;;;;9.63;3.25;;;7.00;99.90;;;7.14;100.00;100579.63;4939858;28;20272;-73
2022/12/28 09:37:01;;;;;;;6.65;2.35;;;7.10;99.90;;;7.15;100.00;100565.63;4911935;28;20246;-73
2022/12/28 09:39:47;;;;;;;3.13;1.15;;;7.20;99.90;;;7.23;100.00;100558.81;4889429;28;20706;-72
2022/12/28 09:42:27;;;;;;;9.40;3.10;;;7.30;99.90;;;7.23;100.00;100563.19;4938704;28;20348;-73
2022/12/28 09:45:10;;;;;;;4.15;1.45;;;7.30;99.90;;;7.33;100.00;100566.09;4938982;28;20233;-72
2022/12/28 09:47:43;;;;;;;4.18;1.42;;;7.30;99.90;;;7.35;100.00;100556.47;4938089;28;20237;-72
2022/12/28 09:50:16;;;;;;;11.80;3.78;;;7.40;99.90;;;7.32;100.00;100543.25;4926692;28;20239;-73
2022/12/28 09:53:04;;;;;;;5.95;2.28;;;7.40;99.90;;;7.32;100.00;100547.63;4939297;28;20635;-73
2022/12/28 09:55:35;;;;;;;7.68;2.55;;;7.30;99.90;;;7.29;99.84;100550.19;4940566;28;20244;-73
2022/12/28 09:58:11;;;;;;;8.10;2.92;;;7.30;99.90;;;7.27;99.67;100541.38;4942229;28;20352;-74
2022/12/28 10:00:54;;;;;;;3.83;1.27;;;7.30;99.90;;;7.29;99.62;100537.03;4942913;28;20237;-73
2022/12/28 10:03:43;;;;;;;3.85;1.40;;;7.30;99.90;;;7.31;99.37;100527.44;4954231;28;20233;-72
2022/12/28 10:06:27;;;;;;;14.52;3.92;;;7.40;99.90;;;7.32;99.29;100527.47;4969448;23;20310;-77
2022/12/28 10:08:58;;;;;;;4.85;1.73;;;7.40;99.90;;;7.35;99.31;100527.53;4979197;28;20232;-76
2022/12/28 10:11:33;;;;;;;6.70;2.22;;;7.40;99.90;;;7.38;98.90;100518.84;4970218;28;20229;-77
2022/12/28 10:14:15;;;;;;;6.28;2.00;;;7.40;99.90;;;7.44;98.47;100515.44;4971757;28;20236;-76
2022/12/28 10:16:43;;;;;;;3.78;1.38;;;7.40;99.90;;;7.45;98.04;100517.22;4974773;28;20228;-77
2022/12/28 10:19:22;;;;;;;6.55;2.25;;;7.50;99.90;;;7.47;98.31;100515.53;4970214;28;20229;-76
2022/12/28 10:22:12;;;;;;;3.78;1.35;;;7.50;99.90;;;7.46;97.83;100506.75;4970835;28;20224;-76
2022/12/28 10:24:41;;;;;;;5.95;1.83;;;7.50;99.90;;;7.46;97.98;100506.75;4963067;28;20243;-77
2022/12/28 10:27:24;;;;;;;5.75;2.00;;;7.50;99.90;;;7.54;97.52;100493.75;4970846;28;20229;-78
2022/12/28 10:29:52;;;;;;;4.75;2.08;;;7.50;99.90;;;7.60;97.45;100493.88;4961309;28;20237;-79
2022/12/28 10:32:25;;;;;;;5.03;1.83;;;7.60;99.90;;;7.71;96.52;100485.38;4968568;28;20237;-78
2022/12/28 10:35:02;;;;;;;3.15;1.23;;;7.70;99.90;;;7.98;96.77;100497.38;4971268;28;20240;-77
2022/12/28 10:37:34;;;;;;;16.75;6.47;;;7.90;99.90;;;8.12;95.40;100479.19;4952333;23;20237;-73
2022/12/28 10:40:13;;;;;;;10.30;3.50;;;8.10;99.90;;;8.18;95.10;100471.41;4916741;28;20236;-72
2022/12/28 10:42:45;;;;;;;7.22;2.22;;;8.10;99.90;;;8.36;94.80;100484.09;4963981;28;20289;-72
2022/12/28 10:45:22;;;;;;;8.02;2.67;;;8.30;99.90;;;8.45;93.69;100463.16;4939236;29;20235;-73
2022/12/28 10:47:53;;;;;;;8.95;2.95;;;8.40;99.90;;;8.51;93.65;100444.84;4916864;28;20233;-73
2022/12/28 10:50:50;;;;;;;7.40;2.45;;;8.50;99.90;;;8.54;92.88;100436.97;4919748;28;20263;-72
2022/12/28 10:53:27;;;;;;;6.97;2.47;;;8.50;99.90;;;8.70;92.58;100432.84;4932398;28;20272;-73
2022/12/28 10:56:30;;;;;;;7.82;2.88;;;8.70;99.90;;;8.93;92.11;100436.75;4916440;28;20611;-73
2022/12/28 10:59:10;;;;;;;8.60;2.92;;;8.90;99.90;;;8.93;91.58;100413.88;4919659;29;20237;-72
2022/12/28 11:01:38;;;;;;;4.20;1.52;;;8.90;99.90;;;8.91;91.33;100399.78;4953475;28;20241;-72
2022/12/28 11:04:23;;;;;;;8.80;3.05;;;8.90;99.90;;;8.68;90.86;100361.63;4951345;28;20238;-72
2022/12/28 11:06:52;;;;;;;8.48;2.85;;;8.80;99.90;;;8.62;90.83;100359.78;4940920;28;20657;-72